Time;durP1;ratioP1;P1;durP2;ratioP2;P2;SDS_P1;SDS_P2;PMS_P1;PMS_P2;Temp;Humidity;BMP_temperature;BMP_pressure;BME280_temperature;BME280_humidity;BME280_pressure;Samples;Min_cycle;Max_cycle;Signal;HPM_P1;HPM_P2
2022/01/02 00:00:14;;;;;;;;;23.50;19.50;;;;;10.91;81.17;101794.38;5059178;28;45415;-73
2022/01/02 00:02:41;;;;;;;;;28.50;25.00;;;;;10.93;81.13;101796.94;5060418;28;45498;-73
2022/01/02 00:05:15;;;;;;;;;24.00;22.75;;;;;10.94;81.12;101791.63;5052735;28;45468;-73
2022/01/02 00:07:56;;;;;;;;;24.50;20.00;;;;;10.93;80.72;101792.56;5035205;28;46302;-73
2022/01/02 00:10:22;;;;;;;;;24.75;21.25;;;;;10.96;80.85;101786.31;5058515;28;45419;-73
2022/01/02 00:12:52;;;;;;;;;28.25;19.50;;;;;10.97;80.47;101780.19;5055124;28;45536;-73
2022/01/02 00:15:20;;;;;;;;;22.50;21.00;;;;;10.94;80.69;101775.00;5052579;28;45554;-73
2022/01/02 00:17:45;;;;;;;;;25.75;23.00;;;;;10.97;80.63;101767.91;5051781;28;46595;-73
2022/01/02 00:20:13;;;;;;;;;23.75;20.50;;;;;10.98;80.59;101780.13;5062052;28;45327;-73
2022/01/02 00:22:41;;;;;;;;;19.75;19.00;;;;;11.01;80.40;101770.41;5041141;28;45551;-73
2022/01/02 00:25:22;;;;;;;;;25.25;19.75;;;;;11.03;80.57;101761.59;5050241;28;45502;-73
2022/01/02 00:27:49;;;;;;;;;27.00;22.75;;;;;11.00;80.72;101752.91;5053933;28;47583;-73
2022/01/02 00:30:16;;;;;;;;;23.00;21.00;;;;;11.07;80.05;101768.50;5051324;28;46003;-73
2022/01/02 00:32:43;;;;;;;;;22.25;22.25;;;;;11.10;80.34;101775.44;5056934;28;45590;-73
2022/01/02 00:35:08;;;;;;;;;23.25;20.75;;;;;11.12;80.59;101765.72;5052384;28;45350;-73
2022/01/02 00:37:34;;;;;;;;;20.50;19.00;;;;;11.13;80.67;101773.59;5052229;28;45323;-73
2022/01/02 00:39:59;;;;;;;;;24.50;19.75;;;;;11.14;80.73;101775.31;5047395;28;45512;-73
2022/01/02 00:42:34;;;;;;;;;21.50;19.75;;;;;11.14;80.70;101772.66;5054678;28;45625;-73
2022/01/02 00:45:18;;;;;;;;;22.00;17.75;;;;;11.18;80.72;101765.56;5057258;28;45382;-73
2022/01/02 00:47:55;;;;;;;;;25.25;21.00;;;;;11.20;80.47;101783.00;5052969;28;45584;-73
2022/01/02 00:50:37;;;;;;;;;19.25;19.00;;;;;11.19;80.56;101781.28;5060248;28;46009;-73
2022/01/02 00:53:04;;;;;;;;;19.75;19.75;;;;;11.21;80.35;101782.09;5061171;28;45418;-73
2022/01/02 00:55:33;;;;;;;;;18.75;17.25;;;;;11.24;80.41;101786.44;5051811;28;45494;-73
2022/01/02 00:58:05;;;;;;;;;26.50;21.50;;;;;11.26;80.20;101783.75;5057224;28;46948;-73
2022/01/02 01:00:32;;;;;;;;;23.25;20.25;;;;;11.24;80.18;101779.41;5057583;28;45442;-73
2022/01/02 01:03:00;;;;;;;;;25.25;20.50;;;;;11.27;80.15;101773.16;5059550;28;45485;-73
2022/01/02 01:05:29;;;;;;;;;21.00;18.25;;;;;11.30;79.98;101762.56;5063709;28;45515;-73
2022/01/02 01:07:57;;;;;;;;;17.50;15.25;;;;;11.31;80.13;101756.38;5055414;28;45664;-73
2022/01/02 01:10:25;;;;;;;;;20.00;18.75;;;;;11.34;79.94;101750.19;5057023;28;45396;-73
2022/01/02 01:12:53;;;;;;;;;22.00;20.00;;;;;11.36;79.91;101745.72;5060366;27;45422;-73
2022/01/02 01:15:20;;;;;;;;;22.00;19.25;;;;;11.36;79.47;101751.00;5056963;27;45483;-73
2022/01/02 01:17:46;;;;;;;;;25.25;19.00;;;;;11.37;79.60;101740.41;5055678;28;46546;-73
2022/01/02 01:20:14;;;;;;;;;23.50;21.00;;;;;11.40;79.44;101747.38;5064174;28;45890;-73
2022/01/02 01:22:41;;;;;;;;;20.75;17.25;;;;;11.38;79.61;101736.91;5055844;28;47414;-73
2022/01/02 01:25:11;;;;;;;;;22.25;19.25;;;;;11.38;79.60;101721.09;5062842;28;45481;-73
2022/01/02 01:27:37;;;;;;;;;21.75;18.25;;;;;11.36;79.25;101708.88;5054432;28;46835;-71
2022/01/02 01:30:04;;;;;;;;;22.00;20.00;;;;;11.34;79.16;101703.69;5060235;28;45444;-71
2022/01/02 01:32:29;;;;;;;;;17.25;14.75;;;;;11.26;78.96;101681.97;5057225;28;45391;-71
2022/01/02 01:34:54;;;;;;;;;22.50;18.00;;;;;11.30;79.31;101688.03;5067107;28;45515;-71
2022/01/02 01:37:20;;;;;;;;;18.75;17.50;;;;;11.27;79.12;101693.38;5057213;28;45418;-71
2022/01/02 01:39:45;;;;;;;;;24.00;19.50;;;;;11.23;79.48;101698.75;5050087;28;45493;-71
2022/01/02 01:42:12;;;;;;;;;17.00;15.75;;;;;11.27;79.18;101710.00;5058670;28;45523;-71
2022/01/02 01:47:12;;;;;;;;;17.50;15.00;;;;;11.30;79.58;101695.91;5065471;28;46161;-71
2022/01/02 01:49:37;;;;;;;;;17.75;14.50;;;;;11.32;79.29;101699.34;5048135;28;45571;-71
2022/01/02 01:52:03;;;;;;;;;20.25;19.75;;;;;11.33;79.10;101717.75;5057516;28;45567;-71
2022/01/02 01:54:28;;;;;;;;;23.25;18.00;;;;;11.30;79.19;101712.56;5054519;28;45418;-71
2022/01/02 01:56:54;;;;;;;;;21.00;20.00;;;;;11.32;78.93;101713.38;5052245;28;46355;-71
2022/01/02 01:59:20;;;;;;;;;17.50;14.50;;;;;11.32;79.00;101718.63;5053016;28;45322;-71
2022/01/02 02:01:47;;;;;;;;;18.00;12.75;;;;;11.32;79.02;101710.72;5053244;28;45503;-71
2022/01/02 02:04:12;;;;;;;;;23.25;18.75;;;;;11.30;78.87;101698.53;5056007;28;45342;-71
2022/01/02 02:06:38;;;;;;;;;19.50;14.00;;;;;11.27;78.69;101696.84;5062908;28;46649;-71
2022/01/02 02:09:04;;;;;;;;;20.25;19.00;;;;;11.27;78.79;101699.47;5054571;28;45332;-71
2022/01/02 02:11:30;;;;;;;;;21.50;18.25;;;;;11.25;79.04;101706.56;5054285;28;45542;-71
2022/01/02 02:13:56;;;;;;;;;20.00;16.00;;;;;11.24;79.05;101694.34;5053894;28;45504;-71
2022/01/02 02:16:22;;;;;;;;;15.00;15.00;;;;;11.23;78.84;101690.84;5054551;28;47219;-71
2022/01/02 02:18:48;;;;;;;;;18.75;12.75;;;;;11.21;79.02;101674.22;5063664;28;45415;-71
2022/01/02 02:21:13;;;;;;;;;23.50;18.50;;;;;11.23;78.71;101682.09;5056280;28;45518;-71
2022/01/02 02:23:38;;;;;;;;;25.75;17.25;;;;;11.15;78.78;101658.63;5055300;28;45418;-71
2022/01/02 02:26:04;;;;;;;;;16.25;14.25;;;;;11.22;78.93;101669.81;5061642;28;46425;-71
2022/01/02 02:28:30;;;;;;;;;21.50;18.75;;;;;11.17;78.55;101654.19;5058453;28;45629;-71
2022/01/02 02:30:56;;;;;;;;;25.50;18.75;;;;;11.20;78.62;101656.72;5055720;28;45462;-71
2022/01/02 02:33:21;;;;;;;;;26.75;20.75;;;;;11.19;78.58;101660.25;5053293;28;45551;-71
2022/01/02 02:35:48;;;;;;;;;23.25;20.00;;;;;11.20;79.08;101654.09;5060231;28;46327;-71
2022/01/02 02:38:16;;;;;;;;;20.50;14.25;;;;;11.21;78.67;101652.31;5035303;28;45562;-71
2022/01/02 02:40:42;;;;;;;;;18.75;16.50;;;;;11.22;78.68;101646.13;5054367;28;45387;-71
2022/01/02 02:51:20;;;;;;;;;19.75;16.75;;;;;11.19;78.41;101628.69;5053785;28;45566;-71
2022/01/02 02:53:48;;;;;;;;;19.25;14.50;;;;;11.20;78.77;101619.03;5054433;28;45530;-71
2022/01/02 02:56:27;;;;;;;;;19.25;17.75;;;;;11.19;78.83;101612.06;5059724;28;46141;-71
2022/01/02 02:58:56;;;;;;;;;21.00;19.00;;;;;11.23;78.82;101611.91;5040010;28;45376;-71
2022/01/02 03:01:23;;;;;;;;;21.25;17.25;;;;;11.19;78.58;101593.63;5055772;28;45415;-71
2022/01/02 03:03:49;;;;;;;;;19.25;17.25;;;;;11.24;78.53;101602.25;5061151;28;45460;-71
2022/01/02 03:06:16;;;;;;;;;16.25;15.50;;;;;11.26;78.36;101599.56;5056251;28;46340;-71
2022/01/02 03:08:43;;;;;;;;;22.50;17.25;;;;;11.21;78.12;101590.03;5056627;28;45852;-71
2022/01/02 03:11:13;;;;;;;;;9.00;7.00;;;;;11.26;78.29;101596.91;5043320;28;45462;-71
2022/01/02 03:13:39;;;;;;;;;16.00;15.00;;;;;11.24;78.38;101602.25;5063563;28;45440;-71
2022/01/02 03:16:04;;;;;;;;;23.75;16.75;;;;;11.28;78.53;101603.00;5066222;28;48288;-71
2022/01/02 03:18:30;;;;;;;;;19.00;15.75;;;;;11.28;78.39;101595.13;5059599;28;45315;-71
2022/01/02 03:20:55;;;;;;;;;16.25;13.00;;;;;11.29;78.21;101600.31;5058831;28;45361;-71
2022/01/02 03:23:20;;;;;;;;;13.00;12.00;;;;;11.31;78.42;101590.59;5062649;28;45379;-71
2022/01/02 03:25:46;;;;;;;;;15.75;14.75;;;;;11.32;78.04;101575.66;5050764;28;46906;-71
2022/01/02 03:28:11;;;;;;;;;16.25;13.00;;;;;11.31;78.39;101566.06;5055414;28;45405;-71
2022/01/02 03:30:36;;;;;;;;;13.75;13.25;;;;;11.32;78.24;101568.63;5051611;28;45306;-71
2022/01/02 03:33:02;;;;;;;;;7.75;7.50;;;;;11.33;78.06;101569.47;5053474;28;45505;-71
2022/01/02 03:35:27;;;;;;;;;16.25;14.75;;;;;11.31;78.15;101582.69;5052885;28;45750;-71
2022/01/02 03:37:54;;;;;;;;;13.50;11.50;;;;;11.30;78.19;101599.41;5055520;28;45477;-71
2022/01/02 03:40:19;;;;;;;;;13.00;11.25;;;;;11.35;78.27;101609.78;5069190;28;45373;-71
2022/01/02 03:42:44;;;;;;;;;13.25;13.00;;;;;11.36;78.24;101593.09;5054130;28;45378;-71
2022/01/02 03:45:11;;;;;;;;;10.00;6.25;;;;;11.41;78.12;101588.53;5054139;28;46115;-71
2022/01/02 03:47:37;;;;;;;;;15.25;13.00;;;;;11.42;77.66;101595.50;5050584;28;45485;-71
2022/01/02 03:50:04;;;;;;;;;10.50;8.25;;;;;11.42;77.81;101596.38;5054015;28;45518;-71
2022/01/02 03:52:30;;;;;;;;;12.75;11.00;;;;;11.42;78.16;101585.84;5052829;28;45580;-71
2022/01/02 03:54:56;;;;;;;;;11.00;10.00;;;;;11.44;77.95;101578.78;5053502;28;45396;-71
2022/01/02 03:57:22;;;;;;;;;16.00;13.50;;;;;11.48;78.00;101579.50;5052880;28;45875;-71
2022/01/02 03:59:47;;;;;;;;;13.00;11.25;;;;;11.50;77.86;101577.72;5055052;28;45241;-71
2022/01/02 04:02:12;;;;;;;;;18.00;13.00;;;;;11.49;77.95;101573.38;5054316;28;45415;-71
2022/01/02 04:04:38;;;;;;;;;16.00;12.25;;;;;11.47;77.79;101554.09;5048448;28;46220;-71
2022/01/02 04:07:04;;;;;;;;;13.25;9.75;;;;;11.57;77.85;101567.81;5057889;28;45419;-71
2022/01/02 04:09:30;;;;;;;;;11.00;11.00;;;;;11.53;77.50;101556.53;5063383;28;45550;-71
2022/01/02 04:11:55;;;;;;;;;10.25;10.25;;;;;11.58;77.70;101567.75;5056103;27;45466;-71
2022/01/02 04:14:21;;;;;;;;;14.25;12.75;;;;;11.57;77.36;101562.56;5053086;28;46223;-71
2022/01/02 04:16:46;;;;;;;;;11.25;10.50;;;;;11.58;77.04;101561.63;5071243;28;45439;-71
2022/01/02 04:19:12;;;;;;;;;13.75;13.00;;;;;11.60;77.54;101551.94;5054692;28;45489;-71
2022/01/02 04:21:37;;;;;;;;;15.00;13.75;;;;;11.60;77.51;101560.69;5065363;28;45562;-71
2022/01/02 04:24:03;;;;;;;;;14.50;13.50;;;;;11.58;77.22;101559.00;5061803;28;47076;-71
2022/01/02 04:26:28;;;;;;;;;14.25;12.75;;;;;11.54;77.63;101546.84;5056682;28;45506;-71
2022/01/02 04:28:53;;;;;;;;;9.75;9.00;;;;;11.58;77.40;101561.63;5060484;28;45472;-71
2022/01/02 04:31:19;;;;;;;;;14.25;13.25;;;;;11.60;77.52;101544.91;5041136;28;49101;-71
2022/01/02 04:33:44;;;;;;;;;15.50;14.25;;;;;11.61;77.29;101533.44;5060460;28;46162;-71
2022/01/02 04:36:10;;;;;;;;;12.00;10.75;;;;;11.57;77.00;101520.44;5057104;28;45764;-71
2022/01/02 04:38:37;;;;;;;;;15.00;11.25;;;;;11.56;77.00;101550.31;5056464;28;45631;-71
2022/01/02 04:41:03;;;;;;;;;13.00;12.50;;;;;11.59;76.98;101547.56;5068244;28;45477;-71
2022/01/02 04:43:29;;;;;;;;;14.00;10.00;;;;;11.57;77.21;101536.22;5065872;28;45497;-71
2022/01/02 04:45:56;;;;;;;;;14.50;9.00;;;;;11.59;77.38;101522.13;5062324;28;45528;-71
2022/01/02 04:48:22;;;;;;;;;13.50;13.50;;;;;11.62;77.16;101529.91;5058320;28;45449;-71
2022/01/02 04:50:47;;;;;;;;;15.50;11.00;;;;;11.59;77.33;101519.50;5058776;28;45297;-71
2022/01/02 04:53:12;;;;;;;;;15.25;12.25;;;;;11.63;76.94;101528.97;5056182;28;46299;-71
2022/01/02 04:55:38;;;;;;;;;11.75;9.50;;;;;11.63;76.90;101526.34;5059381;28;45851;-72
2022/01/02 04:58:05;;;;;;;;;11.25;10.50;;;;;11.62;76.89;101508.84;5057607;28;45334;-72
2022/01/02 05:00:30;;;;;;;;;19.25;15.00;;;;;11.61;76.93;101511.53;5052509;28;45375;-72
2022/01/02 05:02:56;;;;;;;;;19.00;17.50;;;;;11.60;76.32;101501.91;5055610;28;45433;-72
2022/01/02 05:05:21;;;;;;;;;20.00;17.00;;;;;11.62;77.09;101508.84;5056574;28;45515;-72
2022/01/02 05:07:46;;;;;;;;;17.75;15.75;;;;;11.64;77.00;101493.88;5054832;28;47237;-72
2022/01/02 05:10:11;;;;;;;;;18.25;17.50;;;;;11.65;76.68;101494.72;5041196;28;45753;-72
2022/01/02 05:12:37;;;;;;;;;19.75;17.75;;;;;11.63;76.53;101493.91;5054679;28;47048;-72
2022/01/02 05:15:04;;;;;;;;;20.75;16.00;;;;;11.61;76.62;101491.31;5055319;28;45487;-72
2022/01/02 05:17:29;;;;;;;;;19.50;16.00;;;;;11.63;76.23;101473.69;5063352;28;45327;-72
2022/01/02 05:19:55;;;;;;;;;17.00;16.00;;;;;11.62;76.67;101486.91;5058694;28;45441;-72
2022/01/02 05:22:21;;;;;;;;;19.25;15.50;;;;;11.65;76.60;101495.56;5053464;28;47381;-72
2022/01/02 05:24:46;;;;;;;;;15.25;15.00;;;;;11.67;76.62;101496.38;5064357;28;45827;-72
2022/01/02 05:27:12;;;;;;;;;24.50;15.25;;;;;11.67;76.33;101493.72;5058273;28;45767;-72
2022/01/02 05:29:38;;;;;;;;;21.50;15.25;;;;;11.66;76.52;101486.75;5058642;28;45410;-72
2022/01/02 05:32:03;;;;;;;;;12.75;9.50;;;;;11.60;76.27;101486.97;5059991;28;45533;-72
2022/01/02 05:34:28;;;;;;;;;16.50;13.75;;;;;11.61;76.09;101490.47;5053992;28;45371;-72
2022/01/02 05:36:54;;;;;;;;;15.75;9.00;;;;;11.61;76.37;101483.44;5055392;28;46770;-72
2022/01/02 05:39:20;;;;;;;;;13.75;12.75;;;;;11.63;76.30;101478.94;5054811;28;45415;-72
2022/01/02 05:41:47;;;;;;;;;13.00;9.25;;;;;11.62;76.29;101481.66;5046703;28;48017;-72
2022/01/02 05:44:13;;;;;;;;;11.00;11.00;;;;;11.63;76.71;101475.47;5054971;28;45401;-72
2022/01/02 05:46:38;;;;;;;;;14.50;9.75;;;;;11.68;76.26;101478.78;5046931;28;45625;-72
2022/01/02 05:49:03;;;;;;;;;13.25;11.75;;;;;11.68;75.82;101474.38;5057610;28;45546;-72
2022/01/02 05:51:29;;;;;;;;;14.75;11.50;;;;;11.66;76.16;101467.47;5054089;28;45474;-72
2022/01/02 05:53:54;;;;;;;;;11.25;10.25;;;;;11.70;75.56;101474.34;5058079;28;45534;-72
2022/01/02 05:56:19;;;;;;;;;11.00;10.00;;;;;11.73;76.08;101484.75;5053606;28;50556;-72
2022/01/02 05:58:45;;;;;;;;;13.50;10.75;;;;;11.71;76.16;101500.63;5058478;28;45481;-72
2022/01/02 06:01:10;;;;;;;;;6.50;6.50;;;;;11.75;75.87;101491.69;5056231;28;46527;-72
2022/01/02 06:03:36;;;;;;;;;13.50;10.50;;;;;11.75;75.87;101486.44;5054573;28;45414;-72
2022/01/02 06:06:01;;;;;;;;;13.25;10.00;;;;;11.75;75.72;101486.44;5053787;28;45452;-72
2022/01/02 06:08:26;;;;;;;;;11.25;9.00;;;;;11.79;75.72;101488.94;5054418;28;45440;-72
2022/01/02 06:10:52;;;;;;;;;9.25;8.25;;;;;11.79;75.61;101491.56;5054013;28;46167;-72
2022/01/02 06:13:17;;;;;;;;;13.50;10.75;;;;;11.80;75.49;101499.44;5053956;28;45377;-72
2022/01/02 06:15:43;;;;;;;;;14.75;11.50;;;;;11.79;75.71;101476.63;5054668;28;45609;-72
2022/01/02 06:18:08;;;;;;;;;7.50;6.00;;;;;11.81;75.20;101466.06;5057771;28;45385;-72
2022/01/02 06:20:33;;;;;;;;;10.75;8.00;;;;;11.77;75.25;101476.69;5062649;28;45383;-72
2022/01/02 06:22:59;;;;;;;;;8.50;7.25;;;;;11.75;75.33;101469.78;5053875;28;45470;-72
2022/01/02 06:25:24;;;;;;;;;10.00;9.50;;;;;11.77;75.33;101454.78;5056630;28;45360;-72
2022/01/02 06:27:50;;;;;;;;;9.50;7.50;;;;;11.80;74.83;101441.50;5055906;28;45350;-72
2022/01/02 06:30:16;;;;;;;;;10.00;10.00;;;;;11.77;74.99;101489.88;5051990;28;46563;-72
2022/01/02 06:32:41;;;;;;;;;12.75;9.75;;;;;11.82;74.91;101475.72;5061218;27;45667;-72
2022/01/02 06:35:07;;;;;;;;;9.50;8.00;;;;;11.82;74.78;101475.72;5053453;28;45466;-72
2022/01/02 06:37:33;;;;;;;;;10.00;9.50;;;;;11.85;74.97;101497.53;5055246;28;45400;-72
2022/01/02 06:39:58;;;;;;;;;9.50;8.25;;;;;11.85;74.77;101492.28;5059140;28;46108;-72
2022/01/02 06:42:23;;;;;;;;;13.50;10.50;;;;;11.80;74.61;101488.91;5052439;28;45417;-72
2022/01/02 06:44:49;;;;;;;;;11.50;9.75;;;;;11.86;74.84;101495.75;5052563;28;45598;-72
2022/01/02 06:47:15;;;;;;;;;8.25;7.00;;;;;11.75;74.60;101472.41;5053624;28;45588;-72
2022/01/02 06:49:41;;;;;;;;;9.75;7.50;;;;;11.91;74.31;101493.81;5052704;28;45583;-72
2022/01/02 06:52:07;;;;;;;;;9.25;8.50;;;;;11.89;74.25;101485.09;5051084;28;45442;-72
2022/01/02 06:54:32;;;;;;;;;8.50;6.75;;;;;11.90;74.32;101494.72;5052775;28;47119;-72
2022/01/02 06:56:57;;;;;;;;;8.50;7.75;;;;;11.89;74.55;101506.16;5054243;28;45514;-72
2022/01/02 06:59:23;;;;;;;;;7.00;7.00;;;;;11.91;74.54;101507.00;5046651;28;46106;-72
2022/01/02 07:01:48;;;;;;;;;9.50;7.75;;;;;11.90;74.66;101498.22;5053739;28;45530;-72
2022/01/02 07:04:13;;;;;;;;;9.25;9.00;;;;;11.90;74.45;101510.50;5054140;28;45410;-72
2022/01/02 07:06:39;;;;;;;;;10.00;8.75;;;;;11.87;74.33;101485.16;5050032;28;45375;-72
2022/01/02 07:09:05;;;;;;;;;13.50;9.00;;;;;11.86;74.41;101488.72;5056125;28;45484;-72
2022/01/02 07:11:30;;;;;;;;;7.00;7.00;;;;;11.81;74.62;101485.34;5054115;28;45632;-72
2022/01/02 07:13:55;;;;;;;;;9.00;9.00;;;;;11.72;74.60;101481.28;5053860;28;45255;-72
2022/01/02 07:16:20;;;;;;;;;10.00;7.25;;;;;11.71;74.72;101491.88;5054478;28;45382;-72
2022/01/02 07:18:46;;;;;;;;;11.50;9.00;;;;;11.66;75.05;101489.38;5064186;28;54574;-72
2022/01/02 07:21:11;;;;;;;;;7.50;7.50;;;;;11.60;75.14;101494.03;5054962;28;46943;-72
2022/01/02 07:23:37;;;;;;;;;11.50;7.50;;;;;11.55;75.47;101503.84;5036187;28;45580;-72
2022/01/02 07:26:02;;;;;;;;;8.00;8.00;;;;;11.50;75.70;101519.78;5052225;28;45610;-72
2022/01/02 07:28:29;;;;;;;;;9.50;8.25;;;;;11.39;75.73;101504.38;5054730;28;45674;-72
2022/01/02 07:30:55;;;;;;;;;9.00;9.00;;;;;11.38;75.98;101517.56;5054684;28;45894;-72
2022/01/02 07:33:20;;;;;;;;;12.00;9.25;;;;;11.31;76.26;101516.06;5052138;28;45430;-72
2022/01/02 07:35:45;;;;;;;;;8.00;7.25;;;;;11.28;76.55;101518.81;5053099;28;45600;-72
2022/01/02 07:38:11;;;;;;;;;10.00;10.00;;;;;11.33;76.73;101515.13;5042128;28;46208;-72
2022/01/02 07:40:36;;;;;;;;;10.00;8.50;;;;;11.42;76.75;101533.19;5058467;27;45584;-72
2022/01/02 07:43:01;;;;;;;;;7.50;7.50;;;;;11.52;76.59;101528.50;5055061;28;45317;-72
2022/01/02 07:45:27;;;;;;;;;10.75;10.75;;;;;11.64;76.41;101522.81;5054571;28;45369;-72
2022/01/02 07:47:52;;;;;;;;;9.75;9.50;;;;;11.69;76.31;101531.44;5054138;27;45454;-72
2022/01/02 07:50:18;;;;;;;;;14.25;10.00;;;;;11.78;76.22;101548.66;5052767;28;45471;-72
2022/01/02 07:52:43;;;;;;;;;6.25;6.25;;;;;11.82;76.38;101546.81;5068506;28;45519;-72
2022/01/02 07:55:09;;;;;;;;;11.25;10.50;;;;;11.84;76.63;101543.19;5062388;28;45224;-72
2022/01/02 07:57:35;;;;;;;;;12.50;9.00;;;;;11.92;76.08;101556.13;5057020;28;45743;-72
2022/01/02 08:00:01;;;;;;;;;10.25;8.00;;;;;11.93;76.24;101556.06;5051032;28;45437;-72
2022/01/02 08:02:26;;;;;;;;;9.50;9.50;;;;;11.99;76.09;101557.59;5055840;28;45663;-72
2022/01/02 08:04:51;;;;;;;;;9.00;9.00;;;;;12.02;75.90;101571.53;5055240;28;45458;-72
2022/01/02 08:07:17;;;;;;;;;11.50;8.75;;;;;12.00;76.07;101577.75;5052300;28;51308;-72
2022/01/02 08:09:42;;;;;;;;;11.50;10.00;;;;;11.96;75.81;101566.50;5056128;28;45366;-72
2022/01/02 08:12:07;;;;;;;;;11.00;10.50;;;;;11.94;75.81;101576.19;5055130;28;56043;-72
2022/01/02 08:14:33;;;;;;;;;11.75;10.00;;;;;11.94;76.01;101575.34;5052596;28;45347;-72
2022/01/02 08:16:58;;;;;;;;;15.25;11.50;;;;;11.97;75.98;101585.78;5062103;28;46641;-72
2022/01/02 08:19:23;;;;;;;;;12.25;10.00;;;;;11.96;75.92;101579.66;5049806;28;45619;-72
2022/01/02 08:21:49;;;;;;;;;11.75;9.75;;;;;12.04;76.25;101583.78;5054494;28;45432;-72
2022/01/02 08:24:14;;;;;;;;;12.50;10.75;;;;;12.04;76.36;101574.09;5054319;28;45573;-72
2022/01/02 08:26:39;;;;;;;;;10.00;9.00;;;;;12.13;75.77;101572.94;5055488;28;55327;-72
2022/01/02 08:29:05;;;;;;;;;9.00;8.25;;;;;12.20;76.06;101590.22;5046998;28;46865;-72
2022/01/02 08:31:31;;;;;;;;;11.75;9.00;;;;;12.30;75.99;101585.50;5057521;27;45538;-72
2022/01/02 08:33:57;;;;;;;;;9.75;9.00;;;;;12.40;75.81;101593.00;5036383;28;45566;-72
2022/01/02 08:36:23;;;;;;;;;10.00;7.00;;;;;12.47;76.25;101583.94;5053283;28;46592;-72
2022/01/02 08:38:49;;;;;;;;;12.50;9.25;;;;;12.61;75.69;101590.47;5058944;28;45878;-72
2022/01/02 08:41:15;;;;;;;;;9.00;8.50;;;;;12.72;75.67;101568.06;5052127;28;45474;-72
2022/01/02 08:43:40;;;;;;;;;10.50;9.00;;;;;13.14;75.53;101575.19;5056581;28;45463;-72
2022/01/02 08:46:06;;;;;;;;;12.50;9.25;;;;;13.40;74.89;101575.94;5061093;28;46522;-71
2022/01/02 08:48:32;;;;;;;;;13.25;11.25;;;;;13.70;74.26;101582.59;5057691;28;45488;-72
2022/01/02 08:50:57;;;;;;;;;15.25;10.75;;;;;14.01;74.48;101574.22;5046511;28;45459;-73
2022/01/02 08:53:23;;;;;;;;;13.00;9.25;;;;;14.56;73.58;101581.47;5062587;27;45422;-72
2022/01/02 08:55:48;;;;;;;;;13.25;12.25;;;;;14.94;72.76;101577.03;5053176;28;45302;-73
2022/01/02 08:58:13;;;;;;;;;11.75;10.25;;;;;15.31;72.21;101588.50;5047049;28;45616;-72
2022/01/02 09:00:39;;;;;;;;;15.50;11.50;;;;;15.55;71.13;101591.69;5054121;28;45442;-72
2022/01/02 09:03:06;;;;;;;;;10.50;9.75;;;;;15.77;70.04;101589.75;5049446;28;45449;-72
2022/01/02 09:05:31;;;;;;;;;9.00;9.00;;;;;15.94;69.48;101593.31;5049156;28;46290;-72
2022/01/02 09:07:57;;;;;;;;;8.25;8.25;;;;;16.12;69.59;101589.69;5043023;28;45412;-72
2022/01/02 09:10:23;;;;;;;;;12.25;11.25;;;;;16.32;68.78;101601.91;5041296;28;45337;-72
2022/01/02 09:12:49;;;;;;;;;12.50;11.25;;;;;16.51;68.49;101602.63;5048964;28;45427;-72
2022/01/02 09:15:15;;;;;;;;;12.25;10.75;;;;;16.64;66.94;101605.47;5057978;28;45533;-72
2022/01/02 09:17:40;;;;;;;;;9.00;7.25;;;;;16.66;67.22;101604.47;5049974;28;45455;-72
2022/01/02 09:20:07;;;;;;;;;14.00;9.00;;;;;16.67;67.25;101614.13;5042533;28;45332;-72
2022/01/02 09:22:33;;;;;;;;;14.50;8.50;;;;;16.55;66.65;101596.22;5061189;28;45538;-72
2022/01/02 09:24:59;;;;;;;;;10.75;7.50;;;;;16.54;66.76;101615.72;5067666;27;46752;-72
2022/01/02 09:27:24;;;;;;;;;11.50;9.50;;;;;16.40;67.00;101611.19;5038713;28;45579;-72
2022/01/02 09:29:50;;;;;;;;;11.50;9.75;;;;;16.26;67.53;101613.69;5053660;28;45768;-74
2022/01/02 09:32:15;;;;;;;;;11.25;8.25;;;;;16.33;67.26;101619.53;5058628;28;45421;-72
2022/01/02 09:34:41;;;;;;;;;10.50;7.00;;;;;16.82;68.22;101625.75;5062059;28;46239;-72
2022/01/02 09:37:07;;;;;;;;;10.25;8.75;;;;;17.84;67.15;101613.72;5063990;28;45602;-72
2022/01/02 09:39:33;;;;;;;;;9.00;9.00;;;;;18.85;65.06;101623.53;5053844;28;45580;-72
2022/01/02 09:41:58;;;;;;;;;11.25;8.50;;;;;19.48;63.14;101628.28;5047189;28;45570;-72
2022/01/02 09:44:24;;;;;;;;;10.50;9.00;;;;;19.87;61.65;101625.75;5050992;28;45615;-73
2022/01/02 09:46:53;;;;;;;;;10.50;9.75;;;;;20.08;60.71;101622.47;5064732;28;45432;-72
2022/01/02 09:49:20;;;;;;;;;10.00;8.75;;;;;20.02;60.50;101628.22;5055569;28;45333;-72
2022/01/02 09:51:46;;;;;;;;;10.25;9.25;;;;;20.13;60.26;101632.81;5055835;28;45494;-72
2022/01/02 09:54:11;;;;;;;;;12.25;10.00;;;;;20.26;59.93;101617.69;5059294;28;53013;-72
2022/01/02 09:56:37;;;;;;;;;13.25;10.00;;;;;20.53;59.60;101622.06;5054732;28;45391;-72
2022/01/02 09:59:02;;;;;;;;;8.00;8.00;;;;;20.90;58.96;101620.28;5058986;28;45446;-72
2022/01/02 10:01:29;;;;;;;;;11.00;9.25;;;;;21.01;57.90;101624.84;5056157;28;45337;-72
2022/01/02 10:03:57;;;;;;;;;10.00;7.75;;;;;21.13;57.74;101620.41;5059910;28;45445;-72
2022/01/02 10:06:41;;;;;;;;;3.00;3.00;;;;;21.13;57.30;101631.13;5050219;28;45345;-72
2022/01/02 10:09:15;;;;;;;;;11.25;9.25;;;;;21.20;56.86;101640.41;5053847;28;45291;-72
2022/01/02 10:11:40;;;;;;;;;11.00;8.75;;;;;21.14;56.23;101638.16;5055980;28;45886;-73
2022/01/02 10:14:10;;;;;;;;;10.00;8.00;;;;;21.02;56.43;101638.09;5055435;28;45493;-73
2022/01/02 10:16:39;;;;;;;;;10.25;10.25;;;;;20.76;56.63;101645.31;5054710;28;45860;-73
2022/01/02 10:19:19;;;;;;;;;10.00;10.00;;;;;20.41;56.74;101644.25;5055252;28;45590;-74
2022/01/02 10:21:53;;;;;;;;;10.25;9.25;;;;;19.88;57.12;101640.78;5046786;28;45732;-73
2022/01/02 10:24:26;;;;;;;;;8.00;7.00;;;;;19.34;58.08;101640.81;5063199;28;45798;-76
2022/01/02 10:27:11;;;;;;;;;7.00;7.00;;;;;18.91;58.31;101649.75;5060824;28;45610;-75
2022/01/02 10:29:51;;;;;;;;;12.50;8.00;;;;;18.49;58.60;101648.81;5054064;28;45346;-76
2022/01/02 10:32:26;;;;;;;;;9.75;8.00;;;;;18.19;59.37;101646.19;5053732;28;45490;-76
2022/01/02 10:34:52;;;;;;;;;9.00;8.25;;;;;17.99;60.24;101660.69;5036024;28;46988;-76
2022/01/02 10:37:25;;;;;;;;;10.00;7.25;;;;;17.88;60.81;101660.47;5066418;28;45794;-78
2022/01/02 10:39:50;;;;;;;;;8.75;8.00;;;;;17.79;61.17;101653.03;5051348;28;45548;-75
2022/01/02 10:42:17;;;;;;;;;10.75;7.75;;;;;17.70;61.30;101654.41;5056003;28;45403;-76
2022/01/02 10:44:43;;;;;;;;;8.00;8.00;;;;;17.67;61.41;101648.41;5054916;28;45576;-76
2022/01/02 10:47:09;;;;;;;;;9.00;8.25;;;;;17.62;61.46;101661.09;5052977;28;45498;-76
2022/01/02 10:49:59;;;;;;;;;11.75;9.75;;;;;17.57;62.34;101660.50;5038231;28;45451;-75
2022/01/02 10:52:38;;;;;;;;;8.75;6.00;;;;;17.52;61.86;101649.28;5064647;27;45583;-75
2022/01/02 10:55:05;;;;;;;;;10.50;8.00;;;;;17.54;62.24;101653.59;5056635;28;46519;-72
2022/01/02 10:57:34;;;;;;;;;7.00;6.25;;;;;17.35;62.98;101645.78;5053310;28;45515;-72
2022/01/02 11:00:00;;;;;;;;;10.50;9.50;;;;;17.24;62.89;101650.84;5046317;28;45644;-72
2022/01/02 11:02:27;;;;;;;;;7.25;6.50;;;;;17.04;62.79;101645.81;5058721;28;45831;-73
2022/01/02 11:04:58;;;;;;;;;8.25;7.00;;;;;16.92;63.40;101650.84;5050652;28;45662;-72
2022/01/02 11:07:25;;;;;;;;;7.75;7.25;;;;;16.74;63.71;101650.97;5055466;28;47913;-69
2022/01/02 11:09:55;;;;;;;;;8.50;7.50;;;;;16.56;64.22;101661.63;5054659;28;45375;-71
2022/01/02 11:12:22;;;;;;;;;7.25;6.50;;;;;16.36;64.37;101657.38;5054172;28;45613;-70
2022/01/02 11:14:49;;;;;;;;;5.00;5.00;;;;;16.25;65.10;101656.22;5040909;28;46565;-70
2022/01/02 11:17:14;;;;;;;;;9.00;7.75;;;;;16.08;65.59;101655.31;5056385;28;45521;-71
2022/01/02 11:19:41;;;;;;;;;8.75;8.75;;;;;16.03;65.84;101661.78;5049907;28;45700;-70
2022/01/02 11:22:12;;;;;;;;;7.50;7.00;;;;;15.88;65.53;101651.00;5056052;28;45359;-71